sensor_id;sensor_type;location;lat;lon;timestamp;pressure;altitude;pressure_sealevel;temperature;humidity
46199;BME280;31928;52.104;10.030;2023-03-01T00:00:08;102067.34;;;2.11;46.67
46199;BME280;31928;52.104;10.030;2023-03-01T00:02:34;102064.06;;;2.07;47.01
46199;BME280;31928;52.104;10.030;2023-03-01T00:05:01;102055.53;;;2.26;44.58
46199;BME280;31928;52.104;10.030;2023-03-01T00:07:28;102059.97;;;2.03;46.57
46199;BME280;31928;52.104;10.030;2023-03-01T00:09:54;102056.72;;;2.00;46.55
46199;BME280;31928;52.104;10.030;2023-03-01T00:12:21;102059.59;;;1.97;46.76
46199;BME280;31928;52.104;10.030;2023-03-01T00:14:48;102058.19;;;2.15;44.35
46199;BME280;31928;52.104;10.030;2023-03-01T00:17:14;102059.84;;;1.94;46.43
46199;BME280;31928;52.104;10.030;2023-03-01T00:19:41;102065.34;;;1.91;46.46
46199;BME280;31928;52.104;10.030;2023-03-01T00:22:07;102074.47;;;1.87;46.86
46199;BME280;31928;52.104;10.030;2023-03-01T00:24:34;102074.72;;;1.84;46.94
46199;BME280;31928;52.104;10.030;2023-03-01T00:27:03;102067.13;;;1.79;46.83
46199;BME280;31928;52.104;10.030;2023-03-01T00:29:29;102067.38;;;1.77;47.10
46199;BME280;31928;52.104;10.030;2023-03-01T00:31:56;102068.44;;;1.74;46.92
46199;BME280;31928;52.104;10.030;2023-03-01T00:34:24;102071.44;;;1.70;47.24
46199;BME280;31928;52.104;10.030;2023-03-01T00:36:51;102058.44;;;1.67;47.29
46199;BME280;31928;52.104;10.030;2023-03-01T00:39:17;102063.00;;;1.65;47.33
46199;BME280;31928;52.104;10.030;2023-03-01T00:41:44;102064.81;;;1.64;47.32
46199;BME280;31928;52.104;10.030;2023-03-01T00:44:12;102053.75;;;1.59;47.08
46199;BME280;31928;52.104;10.030;2023-03-01T00:46:38;102048.47;;;1.59;47.17
46199;BME280;31928;52.104;10.030;2023-03-01T00:49:05;102050.47;;;1.56;47.30
46199;BME280;31928;52.104;10.030;2023-03-01T00:51:32;102050.59;;;1.54;47.29
46199;BME280;31928;52.104;10.030;2023-03-01T00:53:59;102048.25;;;1.73;44.84
46199;BME280;31928;52.104;10.030;2023-03-01T00:56:27;102043.63;;;1.53;46.94
46199;BME280;31928;52.104;10.030;2023-03-01T00:58:54;102044.06;;;1.47;47.02
46199;BME280;31928;52.104;10.030;2023-03-01T01:01:23;102045.06;;;1.46;47.33
46199;BME280;31928;52.104;10.030;2023-03-01T01:03:53;102058.47;;;1.43;47.33
46199;BME280;31928;52.104;10.030;2023-03-01T01:06:25;102055.94;;;1.42;47.49
46199;BME280;31928;52.104;10.030;2023-03-01T01:08:53;102054.50;;;1.38;47.26
46199;BME280;31928;52.104;10.030;2023-03-01T01:11:21;102052.91;;;1.35;47.62
46199;BME280;31928;52.104;10.030;2023-03-01T01:13:48;102052.22;;;1.33;47.37
46199;BME280;31928;52.104;10.030;2023-03-01T01:16:17;102050.50;;;1.32;47.39
46199;BME280;31928;52.104;10.030;2023-03-01T01:18:44;102046.19;;;1.31;47.72
46199;BME280;31928;52.104;10.030;2023-03-01T01:21:14;102048.00;;;1.31;47.67
46199;BME280;31928;52.104;10.030;2023-03-01T01:23:42;102050.84;;;1.28;47.70
46199;BME280;31928;52.104;10.030;2023-03-01T01:26:11;102050.97;;;1.26;47.79
46199;BME280;31928;52.104;10.030;2023-03-01T01:28:38;102051.19;;;1.23;47.59
46199;BME280;31928;52.104;10.030;2023-03-01T01:31:05;102039.88;;;1.21;47.57
46199;BME280;31928;52.104;10.030;2023-03-01T01:33:33;102037.47;;;1.18;47.69
46199;BME280;31928;52.104;10.030;2023-03-01T01:36:00;102035.06;;;1.16;47.80
46199;BME280;31928;52.104;10.030;2023-03-01T01:38:26;102029.88;;;1.14;47.42
46199;BME280;31928;52.104;10.030;2023-03-01T01:40:53;102025.69;;;1.12;47.51
46199;BME280;31928;52.104;10.030;2023-03-01T01:45:48;102020.84;;;1.06;47.38
46199;BME280;31928;52.104;10.030;2023-03-01T01:48:20;102011.97;;;1.07;47.14
46199;BME280;31928;52.104;10.030;2023-03-01T01:50:55;102016.41;;;1.06;47.32
46199;BME280;31928;52.104;10.030;2023-03-01T01:53:24;102021.28;;;1.00;47.83
46199;BME280;31928;52.104;10.030;2023-03-01T01:55:56;102016.00;;;1.00;47.53
46199;BME280;31928;52.104;10.030;2023-03-01T01:58:26;102025.13;;;0.96;48.11
46199;BME280;31928;52.104;10.030;2023-03-01T02:00:54;102024.41;;;0.94;47.72
46199;BME280;31928;52.104;10.030;2023-03-01T02:03:22;102016.78;;;1.13;45.46
46199;BME280;31928;52.104;10.030;2023-03-01T02:05:57;102017.06;;;0.97;47.05
46199;BME280;31928;52.104;10.030;2023-03-01T02:08:28;102019.19;;;0.92;47.77
46199;BME280;31928;52.104;10.030;2023-03-01T02:10:58;102016.91;;;0.88;47.86
46199;BME280;31928;52.104;10.030;2023-03-01T02:13:26;102016.41;;;0.83;47.76
46199;BME280;31928;52.104;10.030;2023-03-01T02:15:53;102010.41;;;0.81;48.09
46199;BME280;31928;52.104;10.030;2023-03-01T02:18:20;102002.81;;;1.00;45.64
46199;BME280;31928;52.104;10.030;2023-03-01T02:23:15;102000.28;;;0.75;47.66
46199;BME280;31928;52.104;10.030;2023-03-01T02:30:46;101982.25;;;0.69;47.97
46199;BME280;31928;52.104;10.030;2023-03-01T02:33:37;101986.81;;;0.67;47.81
46199;BME280;31928;52.104;10.030;2023-03-01T02:36:09;101984.28;;;0.65;48.13
46199;BME280;31928;52.104;10.030;2023-03-01T02:38:37;101983.66;;;0.62;48.32
46199;BME280;31928;52.104;10.030;2023-03-01T02:41:04;101984.72;;;0.59;48.36
46199;BME280;31928;52.104;10.030;2023-03-01T02:43:32;101981.34;;;0.57;48.22
46199;BME280;31928;52.104;10.030;2023-03-01T02:46:06;101988.19;;;0.60;48.36
46199;BME280;31928;52.104;10.030;2023-03-01T02:54:56;101965.72;;;0.55;48.42
46199;BME280;31928;52.104;10.030;2023-03-01T02:57:26;101968.72;;;0.50;48.48
46199;BME280;31928;52.104;10.030;2023-03-01T02:59:55;101966.16;;;0.49;48.33
46199;BME280;31928;52.104;10.030;2023-03-01T03:02:24;101968.91;;;0.47;48.17
46199;BME280;31928;52.104;10.030;2023-03-01T03:05:24;101963.22;;;0.53;47.55
46199;BME280;31928;52.104;10.030;2023-03-01T03:07:52;101953.31;;;0.44;48.51
46199;BME280;31928;52.104;10.030;2023-03-01T03:10:22;101958.59;;;0.44;48.54
46199;BME280;31928;52.104;10.030;2023-03-01T03:12:53;101953.31;;;0.44;48.71
46199;BME280;31928;52.104;10.030;2023-03-01T03:15:23;101951.63;;;0.43;48.76
46199;BME280;31928;52.104;10.030;2023-03-01T03:17:51;101952.81;;;0.39;48.75
46199;BME280;31928;52.104;10.030;2023-03-01T03:20:20;101952.81;;;0.39;48.58
46199;BME280;31928;52.104;10.030;2023-03-01T03:22:49;101967.91;;;0.37;48.66
46199;BME280;31928;52.104;10.030;2023-03-01T03:25:17;101969.81;;;0.35;48.23
46199;BME280;31928;52.104;10.030;2023-03-01T03:27:46;101970.03;;;0.32;48.67
46199;BME280;31928;52.104;10.030;2023-03-01T03:30:15;101973.63;;;0.31;48.40
46199;BME280;31928;52.104;10.030;2023-03-01T03:32:44;101979.13;;;0.28;48.53
46199;BME280;31928;52.104;10.030;2023-03-01T03:35:23;101978.38;;;0.26;48.26
46199;BME280;31928;52.104;10.030;2023-03-01T03:37:51;101974.25;;;0.22;48.36
46199;BME280;31928;52.104;10.030;2023-03-01T03:40:42;101966.88;;;0.27;47.79
46199;BME280;31928;52.104;10.030;2023-03-01T03:43:16;101970.69;;;0.23;48.41
46199;BME280;31928;52.104;10.030;2023-03-01T03:45:45;101956.97;;;0.18;48.45
46199;BME280;31928;52.104;10.030;2023-03-01T03:48:12;101953.59;;;0.16;48.62
46199;BME280;31928;52.104;10.030;2023-03-01T03:50:39;101952.28;;;0.34;46.73
46199;BME280;31928;52.104;10.030;2023-03-01T03:53:11;101960.44;;;0.19;47.98
46199;BME280;31928;52.104;10.030;2023-03-01T03:55:38;101963.53;;;0.13;48.56
46199;BME280;31928;52.104;10.030;2023-03-01T03:58:08;101957.41;;;0.12;48.63
46199;BME280;31928;52.104;10.030;2023-03-01T04:00:41;101959.22;;;0.12;48.40
46199;BME280;31928;52.104;10.030;2023-03-01T04:03:09;101956.88;;;0.07;48.57
46199;BME280;31928;52.104;10.030;2023-03-01T04:05:37;101964.06;;;0.05;48.45
46199;BME280;31928;52.104;10.030;2023-03-01T04:08:04;101962.50;;;0.03;48.49
46199;BME280;31928;52.104;10.030;2023-03-01T04:10:41;101954.47;;;0.04;48.46
46199;BME280;31928;52.104;10.030;2023-03-01T04:13:15;101954.69;;;0.01;48.64
46199;BME280;31928;52.104;10.030;2023-03-01T04:15:42;101960.38;;;-0.04;48.53
46199;BME280;31928;52.104;10.030;2023-03-01T04:18:13;101960.38;;;-0.04;48.46
46199;BME280;31928;52.104;10.030;2023-03-01T04:20:40;101958.09;;;-0.09;48.57
46199;BME280;31928;52.104;10.030;2023-03-01T04:23:10;101958.91;;;-0.08;48.58
46199;BME280;31928;52.104;10.030;2023-03-01T04:28:11;101959.13;;;-0.11;48.82
46199;BME280;31928;52.104;10.030;2023-03-01T04:30:39;101967.13;;;-0.13;48.95
46199;BME280;31928;52.104;10.030;2023-03-01T04:33:06;101960.09;;;-0.12;48.92
46199;BME280;31928;52.104;10.030;2023-03-01T04:35:34;101961.25;;;-0.16;49.21
46199;BME280;31928;52.104;10.030;2023-03-01T04:38:02;101959.56;;;-0.17;49.04
46199;BME280;31928;52.104;10.030;2023-03-01T04:40:28;101966.72;;;-0.19;48.96
46199;BME280;31928;52.104;10.030;2023-03-01T04:42:55;101963.78;;;-0.02;47.15
46199;BME280;31928;52.104;10.030;2023-03-01T04:45:23;101961.03;;;-0.13;53.07
46199;BME280;31928;52.104;10.030;2023-03-01T04:47:49;101964.06;;;0.05;57.20
46199;BME280;31928;52.104;10.030;2023-03-01T04:50:19;101957.13;;;0.40;60.37
46199;BME280;31928;52.104;10.030;2023-03-01T04:52:50;101960.75;;;0.86;62.69
46199;BME280;31928;52.104;10.030;2023-03-01T04:55:17;101957.13;;;1.33;63.76
46199;BME280;31928;52.104;10.030;2023-03-01T04:57:44;101951.91;;;1.88;58.90
46199;BME280;31928;52.104;10.030;2023-03-01T05:00:12;101949.50;;;2.29;63.40
46199;BME280;31928;52.104;10.030;2023-03-01T05:05:31;101943.03;;;3.06;60.60
46199;BME280;31928;52.104;10.030;2023-03-01T05:08:03;101948.22;;;3.28;58.50
46199;BME280;31928;52.104;10.030;2023-03-01T05:10:32;101947.56;;;3.35;54.07
46199;BME280;31928;52.104;10.030;2023-03-01T05:12:59;101947.44;;;3.37;51.95
46199;BME280;31928;52.104;10.030;2023-03-01T05:15:27;101949.13;;;3.38;50.17
46199;BME280;31928;52.104;10.030;2023-03-01T05:17:55;101945.28;;;3.31;49.82
46199;BME280;31928;52.104;10.030;2023-03-01T05:20:25;101947.88;;;3.21;47.74
46199;BME280;31928;52.104;10.030;2023-03-01T05:22:55;101939.59;;;3.15;47.56
46199;BME280;31928;52.104;10.030;2023-03-01T05:25:21;101937.53;;;2.98;46.48
46199;BME280;31928;52.104;10.030;2023-03-01T05:27:48;101941.19;;;2.86;46.55
46199;BME280;31928;52.104;10.030;2023-03-01T05:30:15;101937.97;;;2.72;46.13
46199;BME280;31928;52.104;10.030;2023-03-01T05:32:44;101947.03;;;2.58;46.11
46199;BME280;31928;52.104;10.030;2023-03-01T05:35:12;101946.59;;;2.42;46.00
46199;BME280;31928;52.104;10.030;2023-03-01T05:37:43;101934.72;;;2.26;46.32
46199;BME280;31928;52.104;10.030;2023-03-01T05:40:11;101935.09;;;2.11;46.47
46199;BME280;31928;52.104;10.030;2023-03-01T05:42:47;101936.28;;;1.96;46.44
46199;BME280;31928;52.104;10.030;2023-03-01T05:45:15;101939.16;;;1.82;46.58
46199;BME280;31928;52.104;10.030;2023-03-01T05:47:43;101938.22;;;1.72;46.74
46199;BME280;31928;52.104;10.030;2023-03-01T05:50:38;101937.47;;;1.70;46.25
46199;BME280;31928;52.104;10.030;2023-03-01T05:53:09;101943.47;;;1.50;47.48
46199;BME280;31928;52.104;10.030;2023-03-01T05:55:37;101948.00;;;1.37;47.64
46199;BME280;31928;52.104;10.030;2023-03-01T05:58:07;101941.47;;;1.30;47.46
46199;BME280;31928;52.104;10.030;2023-03-01T06:00:34;101935.19;;;1.20;47.62
46199;BME280;31928;52.104;10.030;2023-03-01T06:03:01;101936.63;;;1.14;47.32
46199;BME280;31928;52.104;10.030;2023-03-01T06:05:29;101935.41;;;1.07;47.90
46199;BME280;31928;52.104;10.030;2023-03-01T06:07:59;101932.16;;;1.03;48.19
46199;BME280;31928;52.104;10.030;2023-03-01T06:10:26;101936.41;;;0.93;47.93
46199;BME280;31928;52.104;10.030;2023-03-01T06:12:53;101933.28;;;0.88;47.47
46199;BME280;31928;52.104;10.030;2023-03-01T06:15:20;101936.28;;;0.84;47.83
46199;BME280;31928;52.104;10.030;2023-03-01T06:17:47;101934.19;;;0.76;47.66
46199;BME280;31928;52.104;10.030;2023-03-01T06:20:22;101935.03;;;0.77;48.13
46199;BME280;31928;52.104;10.030;2023-03-01T06:22:50;101935.69;;;0.68;48.51
46199;BME280;31928;52.104;10.030;2023-03-01T06:25:19;101929.69;;;0.66;48.85
46199;BME280;31928;52.104;10.030;2023-03-01T06:27:46;101923.91;;;0.61;48.95
46199;BME280;31928;52.104;10.030;2023-03-01T06:30:16;101933.63;;;0.60;49.06
46199;BME280;31928;52.104;10.030;2023-03-01T06:32:43;101933.13;;;0.56;49.24
46199;BME280;31928;52.104;10.030;2023-03-01T06:35:11;101929.63;;;0.55;49.23
46199;BME280;31928;52.104;10.030;2023-03-01T06:37:38;101932.38;;;0.54;49.48
46199;BME280;31928;52.104;10.030;2023-03-01T06:40:07;101935.97;;;0.53;49.53
46199;BME280;31928;52.104;10.030;2023-03-01T06:42:39;101943.69;;;0.56;49.45
46199;BME280;31928;52.104;10.030;2023-03-01T06:45:07;101941.16;;;0.54;49.66
46199;BME280;31928;52.104;10.030;2023-03-01T06:47:34;101942.09;;;0.53;49.78
46199;BME280;31928;52.104;10.030;2023-03-01T06:50:01;101945.47;;;0.55;50.23
46199;BME280;31928;52.104;10.030;2023-03-01T06:52:28;101947.16;;;0.56;50.23
46199;BME280;31928;52.104;10.030;2023-03-01T06:54:55;101945.25;;;0.58;49.96
46199;BME280;31928;52.104;10.030;2023-03-01T06:57:22;101941.66;;;0.59;50.17
46199;BME280;31928;52.104;10.030;2023-03-01T06:59:49;101938.91;;;0.60;50.20
46199;BME280;31928;52.104;10.030;2023-03-01T07:02:15;101941.31;;;0.63;50.38
46199;BME280;31928;52.104;10.030;2023-03-01T07:04:42;101937.63;;;0.66;50.26
46199;BME280;31928;52.104;10.030;2023-03-01T07:07:09;101946.25;;;0.68;50.39
46199;BME280;31928;52.104;10.030;2023-03-01T07:09:35;101942.06;;;0.89;48.39
46199;BME280;31928;52.104;10.030;2023-03-01T07:12:03;101936.13;;;0.74;50.41
46199;BME280;31928;52.104;10.030;2023-03-01T07:14:29;101940.28;;;0.77;50.73
46199;BME280;31928;52.104;10.030;2023-03-01T07:16:56;101931.22;;;0.81;51.15
46199;BME280;31928;52.104;10.030;2023-03-01T07:19:23;101926.44;;;0.86;51.25
46199;BME280;31928;52.104;10.030;2023-03-01T07:21:49;101933.06;;;0.91;51.41
46199;BME280;31928;52.104;10.030;2023-03-01T07:24:16;101928.19;;;0.98;51.49
46199;BME280;31928;52.104;10.030;2023-03-01T07:26:43;101926.63;;;1.06;51.19
46199;BME280;31928;52.104;10.030;2023-03-01T07:29:10;101924.50;;;1.11;51.13
46199;BME280;31928;52.104;10.030;2023-03-01T07:31:37;101921.28;;;1.18;51.55
46199;BME280;31928;52.104;10.030;2023-03-01T07:34:03;101918.88;;;1.26;51.19
46199;BME280;31928;52.104;10.030;2023-03-01T07:36:30;101913.03;;;1.34;51.01
46199;BME280;31928;52.104;10.030;2023-03-01T07:38:57;101912.34;;;1.43;51.20
46199;BME280;31928;52.104;10.030;2023-03-01T07:41:24;101902.84;;;1.51;51.67
46199;BME280;31928;52.104;10.030;2023-03-01T07:43:51;101905.75;;;1.59;51.27
46199;BME280;31928;52.104;10.030;2023-03-01T07:46:17;101911.16;;;1.69;51.23
46199;BME280;31928;52.104;10.030;2023-03-01T07:48:45;101896.41;;;1.77;51.24
46199;BME280;31928;52.104;10.030;2023-03-01T07:51:12;101903.34;;;1.89;51.74
46199;BME280;31928;52.104;10.030;2023-03-01T07:53:39;101900.94;;;1.97;51.61
46199;BME280;31928;52.104;10.030;2023-03-01T07:56:08;101910.31;;;2.12;51.18
46199;BME280;31928;52.104;10.030;2023-03-01T07:58:36;101899.00;;;2.21;51.44
46199;BME280;31928;52.104;10.030;2023-03-01T08:01:07;101905.94;;;2.33;51.18
46199;BME280;31928;52.104;10.030;2023-03-01T08:03:35;101909.28;;;2.45;51.12
46199;BME280;31928;52.104;10.030;2023-03-01T08:06:04;101910.09;;;2.57;51.62
46199;BME280;31928;52.104;10.030;2023-03-01T08:08:32;101915.13;;;2.71;51.69
46199;BME280;31928;52.104;10.030;2023-03-01T08:11:00;101907.00;;;2.83;51.72
46199;BME280;31928;52.104;10.030;2023-03-01T08:13:27;101911.16;;;2.97;52.01
46199;BME280;31928;52.104;10.030;2023-03-01T08:15:54;101903.75;;;3.11;51.57
46199;BME280;31928;52.104;10.030;2023-03-01T08:18:21;101904.25;;;3.25;51.40
46199;BME280;31928;52.104;10.030;2023-03-01T08:20:47;101901.16;;;3.41;50.87
46199;BME280;31928;52.104;10.030;2023-03-01T08:23:14;101899.88;;;3.56;50.32
46199;BME280;31928;52.104;10.030;2023-03-01T08:25:41;101903.84;;;3.70;50.38
46199;BME280;31928;52.104;10.030;2023-03-01T08:28:07;101902.53;;;3.85;49.70
46199;BME280;31928;52.104;10.030;2023-03-01T08:30:34;101897.69;;;4.00;49.17
46199;BME280;31928;52.104;10.030;2023-03-01T08:33:01;101896.50;;;4.13;49.33
46199;BME280;31928;52.104;10.030;2023-03-01T08:35:28;101890.09;;;4.25;49.22
46199;BME280;31928;52.104;10.030;2023-03-01T08:37:54;101892.38;;;4.39;48.56
46199;BME280;31928;52.104;10.030;2023-03-01T08:40:21;101894.91;;;4.50;48.82
46199;BME280;31928;52.104;10.030;2023-03-01T08:42:48;101886.53;;;4.64;48.42
46199;BME280;31928;52.104;10.030;2023-03-01T08:45:14;101887.09;;;4.76;48.50
46199;BME280;31928;52.104;10.030;2023-03-01T08:47:44;101891.28;;;4.88;48.21
46199;BME280;31928;52.104;10.030;2023-03-01T08:50:11;101883.88;;;5.01;48.35
46199;BME280;31928;52.104;10.030;2023-03-01T08:52:38;101888.75;;;5.15;48.92
46199;BME280;31928;52.104;10.030;2023-03-01T08:55:05;101890.03;;;5.30;48.51
46199;BME280;31928;52.104;10.030;2023-03-01T08:57:32;101892.91;;;5.46;48.51
46199;BME280;31928;52.104;10.030;2023-03-01T08:59:58;101892.06;;;5.64;48.15
46199;BME280;31928;52.104;10.030;2023-03-01T09:02:25;101896.50;;;5.83;48.04
46199;BME280;31928;52.104;10.030;2023-03-01T09:04:52;101888.28;;;6.03;48.31
46199;BME280;31928;52.104;10.030;2023-03-01T09:07:18;101886.22;;;6.24;47.15
46199;BME280;31928;52.104;10.030;2023-03-01T09:09:45;101887.75;;;6.44;46.88
46199;BME280;31928;52.104;10.030;2023-03-01T09:12:11;101877.84;;;6.63;46.71
46199;BME280;31928;52.104;10.030;2023-03-01T09:14:38;101878.38;;;6.84;45.00
46199;BME280;31928;52.104;10.030;2023-03-01T09:17:05;101881.72;;;7.03;45.05
46199;BME280;31928;52.104;10.030;2023-03-01T09:19:31;101874.53;;;7.21;44.78
46199;BME280;31928;52.104;10.030;2023-03-01T09:21:58;101884.88;;;7.41;44.52
46199;BME280;31928;52.104;10.030;2023-03-01T09:24:25;101881.97;;;7.60;44.70
46199;BME280;31928;52.104;10.030;2023-03-01T09:26:55;101879.78;;;7.81;45.26
46199;BME280;31928;52.104;10.030;2023-03-01T09:29:22;101876.22;;;7.98;45.61
46199;BME280;31928;52.104;10.030;2023-03-01T09:31:49;101874.31;;;8.16;45.75
46199;BME280;31928;52.104;10.030;2023-03-01T09:34:16;101874.03;;;8.35;45.31
46199;BME280;31928;52.104;10.030;2023-03-01T09:36:45;101857.72;;;8.53;44.78
46199;BME280;31928;52.104;10.030;2023-03-01T09:39:11;101868.13;;;8.72;44.24
46199;BME280;31928;52.104;10.030;2023-03-01T09:41:46;101864.13;;;9.00;45.62
46199;BME280;31928;52.104;10.030;2023-03-01T09:46:59;101856.28;;;9.30;42.72
46199;BME280;31928;52.104;10.030;2023-03-01T09:49:32;101849.06;;;9.47;42.97
46199;BME280;31928;52.104;10.030;2023-03-01T09:52:16;101852.72;;;9.61;42.58
46199;BME280;31928;52.104;10.030;2023-03-01T09:54:49;101845.31;;;9.79;43.64
46199;BME280;31928;52.104;10.030;2023-03-01T10:00:17;101842.50;;;10.19;42.26
46199;BME280;31928;52.104;10.030;2023-03-01T10:02:49;101841.09;;;10.31;40.63
46199;BME280;31928;52.104;10.030;2023-03-01T10:08:31;101831.38;;;10.60;38.33
46199;BME280;31928;52.104;10.030;2023-03-01T10:11:04;101842.34;;;10.73;38.00
46199;BME280;31928;52.104;10.030;2023-03-01T10:14:02;101836.88;;;10.89;39.75
46199;BME280;31928;52.104;10.030;2023-03-01T10:19:33;101837.03;;;11.10;37.91
46199;BME280;31928;52.104;10.030;2023-03-01T10:22:07;101846.88;;;11.17;37.29
46199;BME280;31928;52.104;10.030;2023-03-01T10:24:37;101842.44;;;11.24;37.98
46199;BME280;31928;52.104;10.030;2023-03-01T10:27:25;101848.63;;;11.47;41.38
46199;BME280;31928;52.104;10.030;2023-03-01T10:30:19;101838.81;;;11.54;38.59
46199;BME280;31928;52.104;10.030;2023-03-01T10:32:49;101829.03;;;11.61;35.59
46199;BME280;31928;52.104;10.030;2023-03-01T10:38:08;101832.28;;;11.85;37.80
46199;BME280;31928;52.104;10.030;2023-03-01T10:40:36;101823.66;;;11.90;35.26
46199;BME280;31928;52.104;10.030;2023-03-01T10:43:16;101825.88;;;12.00;35.75
46199;BME280;31928;52.104;10.030;2023-03-01T10:45:42;101823.09;;;12.08;34.52
46199;BME280;31928;52.104;10.030;2023-03-01T10:50:44;101821.66;;;12.27;35.63
46199;BME280;31928;52.104;10.030;2023-03-01T10:53:22;101822.75;;;12.32;35.39
46199;BME280;31928;52.104;10.030;2023-03-01T10:56:00;101816.91;;;12.43;36.27
46199;BME280;31928;52.104;10.030;2023-03-01T10:58:28;101817.78;;;12.50;34.20
46199;BME280;31928;52.104;10.030;2023-03-01T11:00:58;101814.81;;;12.59;33.83
46199;BME280;31928;52.104;10.030;2023-03-01T11:03:28;101814.03;;;12.65;34.43
46199;BME280;31928;52.104;10.030;2023-03-01T11:08:35;101812.94;;;12.81;33.67
46199;BME280;31928;52.104;10.030;2023-03-01T11:11:22;101806.69;;;12.95;35.80
46199;BME280;31928;52.104;10.030;2023-03-01T11:13:56;101808.63;;;13.01;34.48
46199;BME280;31928;52.104;10.030;2023-03-01T11:16:31;101810.56;;;13.07;34.90
46199;BME280;31928;52.104;10.030;2023-03-01T11:19:14;101807.97;;;13.20;35.49
46199;BME280;31928;52.104;10.030;2023-03-01T11:22:01;101797.31;;;13.32;35.16
46199;BME280;31928;52.104;10.030;2023-03-01T11:27:03;101792.63;;;13.47;33.07
46199;BME280;31928;52.104;10.030;2023-03-01T11:30:05;101794.63;;;13.66;35.45
46199;BME280;31928;52.104;10.030;2023-03-01T11:32:41;101783.44;;;13.69;33.92
46199;BME280;31928;52.104;10.030;2023-03-01T11:40:43;101779.66;;;14.04;34.29
46199;BME280;31928;52.104;10.030;2023-03-01T11:43:31;101781.41;;;14.11;31.81
46199;BME280;31928;52.104;10.030;2023-03-01T11:49:26;101780.66;;;14.37;33.51
46199;BME280;31928;52.104;10.030;2023-03-01T11:54:51;101779.03;;;14.48;31.00
46199;BME280;31928;52.104;10.030;2023-03-01T12:03:38;101779.09;;;14.87;32.69
46199;BME280;31928;52.104;10.030;2023-03-01T12:26:10;101738.38;;;15.47;30.57
46199;BME280;31928;52.104;10.030;2023-03-01T12:28:42;101734.59;;;15.48;29.33
46199;BME280;31928;52.104;10.030;2023-03-01T12:34:27;101721.63;;;15.75;31.35
46199;BME280;31928;52.104;10.030;2023-03-01T12:45:47;101708.66;;;15.97;27.88
46199;BME280;31928;52.104;10.030;2023-03-01T12:48:30;101708.19;;;16.06;30.16
46199;BME280;31928;52.104;10.030;2023-03-01T12:51:08;101702.78;;;16.06;29.22
46199;BME280;31928;52.104;10.030;2023-03-01T12:53:44;101705.69;;;16.05;29.23
46199;BME280;31928;52.104;10.030;2023-03-01T12:56:16;101703.84;;;15.99;28.63
46199;BME280;31928;52.104;10.030;2023-03-01T13:01:27;101682.69;;;15.89;28.16
46199;BME280;31928;52.104;10.030;2023-03-01T13:07:26;101678.63;;;16.11;31.03
46199;BME280;31928;52.104;10.030;2023-03-01T13:15:32;101665.22;;;16.29;29.78
46199;BME280;31928;52.104;10.030;2023-03-01T13:18:01;101668.38;;;16.26;27.96
46199;BME280;31928;52.104;10.030;2023-03-01T13:20:49;101661.19;;;16.38;30.76
46199;BME280;31928;52.104;10.030;2023-03-01T13:30:58;101658.09;;;16.59;27.10
46199;BME280;31928;52.104;10.030;2023-03-01T13:35:58;101652.00;;;16.70;28.17
46199;BME280;31928;52.104;10.030;2023-03-01T13:46:50;101636.84;;;16.86;27.03
46199;BME280;31928;52.104;10.030;2023-03-01T13:49:23;101628.63;;;16.93;27.70
46199;BME280;31928;52.104;10.030;2023-03-01T13:51:53;101625.09;;;16.92;26.23
46199;BME280;31928;52.104;10.030;2023-03-01T13:54:24;101630.22;;;17.18;31.36
46199;BME280;31928;52.104;10.030;2023-03-01T13:56:51;101623.16;;;16.99;26.49
46199;BME280;31928;52.104;10.030;2023-03-01T13:59:20;101617.13;;;16.97;25.99
46199;BME280;31928;52.104;10.030;2023-03-01T14:01:56;101616.31;;;16.97;27.84
46199;BME280;31928;52.104;10.030;2023-03-01T14:04:25;101617.41;;;16.89;26.41
46199;BME280;31928;52.104;10.030;2023-03-01T14:07:12;101619.66;;;16.92;29.16
46199;BME280;31928;52.104;10.030;2023-03-01T14:09:44;101617.63;;;16.88;28.44
46199;BME280;31928;52.104;10.030;2023-03-01T14:15:19;101615.44;;;16.96;26.93
46199;BME280;31928;52.104;10.030;2023-03-01T14:20:41;101607.63;;;17.06;26.69
46199;BME280;31928;52.104;10.030;2023-03-01T14:23:12;101609.31;;;17.07;27.61
46199;BME280;31928;52.104;10.030;2023-03-01T14:25:47;101608.25;;;17.08;28.16
46199;BME280;31928;52.104;10.030;2023-03-01T14:28:22;101606.59;;;17.07;28.22
46199;BME280;31928;52.104;10.030;2023-03-01T14:30:54;101597.03;;;17.05;27.69
46199;BME280;31928;52.104;10.030;2023-03-01T14:35:55;101599.28;;;17.08;27.87
46199;BME280;31928;52.104;10.030;2023-03-01T14:38:29;101602.84;;;17.08;28.17
46199;BME280;31928;52.104;10.030;2023-03-01T14:40:59;101602.84;;;17.08;27.45
46199;BME280;31928;52.104;10.030;2023-03-01T14:43:30;101596.56;;;17.08;27.25
46199;BME280;31928;52.104;10.030;2023-03-01T14:45:57;101594.09;;;17.06;26.58
46199;BME280;31928;52.104;10.030;2023-03-01T14:48:24;101596.22;;;17.04;26.83
46199;BME280;31928;52.104;10.030;2023-03-01T14:50:53;101592.31;;;17.00;27.03
46199;BME280;31928;52.104;10.030;2023-03-01T14:53:26;101603.97;;;17.01;28.28
46199;BME280;31928;52.104;10.030;2023-03-01T14:55:59;101603.13;;;17.00;28.35
46199;BME280;31928;52.104;10.030;2023-03-01T14:58:31;101593.50;;;17.22;30.71
46199;BME280;31928;52.104;10.030;2023-03-01T15:01:01;101594.16;;;17.00;27.05
46199;BME280;31928;52.104;10.030;2023-03-01T15:06:01;101586.72;;;16.95;27.59
46199;BME280;31928;52.104;10.030;2023-03-01T15:08:29;101585.88;;;16.95;27.30
46199;BME280;31928;52.104;10.030;2023-03-01T15:13:40;101574.38;;;16.99;27.11
46199;BME280;31928;52.104;10.030;2023-03-01T15:16:10;101572.25;;;17.01;26.97
46199;BME280;31928;52.104;10.030;2023-03-01T15:18:37;101563.53;;;16.99;26.82